Time;durP1;ratioP1;P1;durP2;ratioP2;P2;SDS_P1;SDS_P2;PMS_P1;PMS_P2;Temp;Humidity;BMP_temperature;BMP_pressure;BME280_temperature;BME280_humidity;BME280_pressure;Samples;Min_cycle;Max_cycle;Signal;HPM_P1;HPM_P2
2023/07/14 00:01:19;;;;;;;9.07;3.88;;;15.50;1.00;;;;;;5016155;28;20049;-61
2023/07/14 00:03:45;;;;;;;6.60;3.78;;;15.40;1.00;;;;;;5014146;28;20049;-61
2023/07/14 00:06:13;;;;;;;6.32;3.50;;;15.40;1.00;;;;;;5015724;28;20128;-62
2023/07/14 00:08:40;;;;;;;5.93;4.15;;;15.30;1.00;;;;;;4998218;28;20044;-62
2023/07/14 00:11:21;;;;;;;11.27;4.28;;;15.30;2.40;;;;;;5015682;28;20042;-61
2023/07/14 00:13:48;;;;;;;6.68;3.78;;;15.30;4.10;;;;;;5014726;28;20052;-62
2023/07/14 00:16:23;;;;;;;6.07;3.63;;;15.20;14.00;;;;;;5014573;28;20050;-61
2023/07/14 00:18:49;;;;;;;5.10;3.95;;;15.20;14.60;;;;;;5015632;28;20041;-61
2023/07/14 00:21:22;;;;;;;6.78;3.97;;;15.10;20.90;;;;;;5015813;28;20405;-61
2023/07/14 00:23:48;;;;;;;8.40;4.57;;;15.10;30.80;;;;;;5014172;28;20049;-63
2023/07/14 00:26:20;;;;;;;5.30;3.88;;;15.10;31.30;;;;;;5013902;28;20033;-61
2023/07/14 00:28:49;;;;;;;6.32;4.68;;;15.00;32.40;;;;;;5015750;28;20120;-61
2023/07/14 00:31:18;;;;;;;5.18;3.88;;;15.00;40.10;;;;;;5015660;28;20034;-61
2023/07/14 00:33:47;;;;;;;7.30;4.70;;;15.00;46.80;;;;;;5015584;28;20398;-61
2023/07/14 00:36:12;;;;;;;7.78;4.95;;;15.00;46.00;;;;;;5015260;28;20038;-61
2023/07/14 00:38:38;;;;;;;7.25;4.90;;;15.00;49.00;;;;;;5015502;28;20389;-61
2023/07/14 00:41:10;;;;;;;7.32;5.00;;;14.90;42.20;;;;;;5015440;28;20375;-62
2023/07/14 00:43:37;;;;;;;8.50;5.55;;;14.90;47.80;;;;;;5015045;28;20038;-62
2023/07/14 00:46:03;;;;;;;7.22;4.53;;;14.80;66.10;;;;;;5015241;28;20057;-64
2023/07/14 00:48:30;;;;;;;7.78;4.82;;;14.90;63.50;;;;;;5015366;28;20397;-61
2023/07/14 00:51:10;;;;;;;8.40;4.95;;;14.90;63.00;;;;;;5015189;28;20044;-61
2023/07/14 00:53:42;;;;;;;8.13;4.97;;;14.80;61.20;;;;;;5013702;28;20042;-61
2023/07/14 00:56:10;;;;;;;6.82;5.00;;;14.80;60.10;;;;;;5013596;28;20049;-61
2023/07/14 00:58:39;;;;;;;7.30;5.07;;;14.80;67.00;;;;;;5014772;28;20042;-61
2023/07/14 01:01:10;;;;;;;10.10;5.85;;;14.80;66.90;;;;;;5013510;28;20045;-61
2023/07/14 01:03:39;;;;;;;6.72;5.18;;;15.00;78.20;;;;;;5013404;28;20125;-61
2023/07/14 01:06:10;;;;;;;6.20;5.05;;;14.80;83.00;;;;;;5015024;28;20049;-62
2023/07/14 01:08:53;;;;;;;10.13;5.60;;;14.90;84.80;;;;;;5013765;28;20496;-61
2023/07/14 01:11:24;;;;;;;9.38;5.40;;;14.90;86.30;;;;;;5014909;28;20417;-61
2023/07/14 01:13:49;;;;;;;13.15;6.57;;;14.80;88.60;;;;;;5014934;28;20041;-61
2023/07/14 01:16:16;;;;;;;9.52;5.97;;;14.70;87.60;;;;;;5014844;28;20100;-62
2023/07/14 01:18:44;;;;;;;10.90;6.38;;;14.80;90.90;;;;;;5014787;28;20041;-61
2023/07/14 01:21:11;;;;;;;10.15;6.18;;;14.70;89.90;;;;;;5014456;28;20045;-61
2023/07/14 01:24:12;;;;;;;8.90;5.90;;;14.80;89.10;;;;;;5014685;28;20073;-61
2023/07/14 01:26:57;;;;;;;8.75;5.85;;;14.80;92.30;;;;;;5007242;28;20502;-61
2023/07/14 01:29:23;;;;;;;8.60;6.25;;;14.80;92.40;;;;;;5014489;28;20060;-61
2023/07/14 01:31:49;;;;;;;9.80;6.10;;;14.70;93.00;;;;;;5014481;28;20112;-61
2023/07/14 01:34:16;;;;;;;8.82;6.22;;;14.70;92.90;;;;;;5014356;28;20510;-61
2023/07/14 01:36:44;;;;;;;12.57;7.05;;;14.70;93.60;;;;;;5013489;28;20042;-61
2023/07/14 01:39:10;;;;;;;12.48;6.22;;;14.60;95.10;;;;;;5012931;28;20046;-61
2023/07/14 01:41:36;;;;;;;14.10;7.10;;;14.60;95.50;;;;;;5029413;28;20049;-61
2023/07/14 01:44:09;;;;;;;10.93;6.93;;;14.60;93.90;;;;;;5014089;28;20425;-61
2023/07/14 01:46:35;;;;;;;12.00;6.90;;;14.90;93.50;;;;;;5013908;28;20478;-65
2023/07/14 01:49:24;;;;;;;11.25;7.20;;;14.80;95.00;;;;;;5014110;28;20049;-61
2023/07/14 01:51:51;;;;;;;15.30;6.20;;;14.70;95.40;;;;;;5012609;28;20077;-61
2023/07/14 01:54:40;;;;;;;13.80;6.60;;;14.50;96.30;;;;;;5028927;28;20497;-62
2023/07/14 01:57:12;;;;;;;10.43;6.63;;;14.50;95.20;;;;;;5012445;28;20049;-61
2023/07/14 01:59:43;;;;;;;9.77;6.93;;;14.70;96.70;;;;;;5013995;28;20077;-61
2023/07/14 02:02:13;;;;;;;10.50;7.05;;;14.60;97.90;;;;;;5012434;28;20470;-61
2023/07/14 02:04:45;;;;;;;11.80;6.97;;;14.60;99.50;;;;;;5013846;28;20053;-61
2023/07/14 02:07:13;;;;;;;9.73;7.15;;;14.30;98.40;;;;;;5013821;28;20046;-63
2023/07/14 02:09:40;;;;;;;12.38;7.03;;;14.50;98.90;;;;;;5013473;28;20038;-61
2023/07/14 02:12:12;;;;;;;9.15;6.68;;;14.60;98.80;;;;;;5013641;28;20045;-64
2023/07/14 02:14:53;;;;;;;10.90;6.88;;;14.70;98.00;;;;;;5013391;28;20033;-62
2023/07/14 02:17:33;;;;;;;9.95;6.32;;;14.50;98.50;;;;;;5012075;28;20038;-61
2023/07/14 02:20:11;;;;;;;10.30;6.13;;;14.60;98.00;;;;;;5013669;28;20513;-63
2023/07/14 02:22:37;;;;;;;8.65;6.07;;;14.60;97.80;;;;;;5013552;28;20112;-61
2023/07/14 02:25:07;;;;;;;10.43;6.40;;;14.50;99.50;;;;;;5013126;28;20045;-66
2023/07/14 02:27:33;;;;;;;9.48;6.57;;;14.60;98.50;;;;;;4995593;28;20042;-61
2023/07/14 02:30:14;;;;;;;8.30;5.72;;;14.70;98.30;;;;;;5013134;28;20037;-61
2023/07/14 02:32:46;;;;;;;8.48;6.00;;;14.50;97.30;;;;;;5013380;28;20046;-64
2023/07/14 02:35:49;;;;;;;8.85;5.63;;;14.70;99.00;;;;;;5013303;28;20038;-61
2023/07/14 02:38:17;;;;;;;10.77;6.63;;;14.60;98.00;;;;;;5012974;28;20042;-61
2023/07/14 02:40:55;;;;;;;12.30;6.38;;;14.50;98.80;;;;;;5012017;28;20050;-63
2023/07/14 02:43:23;;;;;;;8.73;5.70;;;14.60;97.90;;;;;;5013124;28;20433;-62
2023/07/14 02:45:58;;;;;;;8.93;5.78;;;14.40;98.10;;;;;;5011614;28;20046;-61
2023/07/14 02:48:38;;;;;;;9.40;5.97;;;14.50;98.00;;;;;;5013133;28;20126;-61
2023/07/14 02:51:04;;;;;;;10.23;6.40;;;14.60;98.30;;;;;;5013142;28;20171;-61
2023/07/14 02:53:29;;;;;;;9.00;6.18;;;14.50;97.70;;;;;;5013179;28;20069;-63
2023/07/14 02:55:55;;;;;;;9.15;6.03;;;14.40;98.30;;;;;;5013163;28;20061;-61
2023/07/14 02:58:21;;;;;;;7.72;6.15;;;14.60;97.90;;;;;;5013045;28;20121;-61
2023/07/14 03:00:47;;;;;;;9.50;6.18;;;14.60;97.60;;;;;;5011514;28;20490;-61
2023/07/14 03:03:13;;;;;;;10.35;6.60;;;14.60;97.50;;;;;;5012646;28;20107;-61
2023/07/14 03:05:38;;;;;;;9.38;6.03;;;14.50;97.60;;;;;;5013069;28;20540;-61
2023/07/14 03:08:08;;;;;;;9.63;5.88;;;14.40;97.00;;;;;;5012665;28;20033;-61
2023/07/14 03:10:37;;;;;;;7.00;5.22;;;14.50;96.80;;;;;;5012676;28;20045;-61
2023/07/14 03:13:02;;;;;;;9.32;5.72;;;14.60;96.00;;;;;;5012680;28;20038;-61
2023/07/14 03:15:28;;;;;;;9.93;5.90;;;14.40;97.00;;;;;;5012912;28;20038;-61
2023/07/14 03:17:53;;;;;;;10.38;5.63;;;14.40;97.40;;;;;;5011608;28;20057;-61
2023/07/14 03:20:19;;;;;;;11.23;4.90;;;14.60;96.80;;;;;;5012620;28;20034;-61
2023/07/14 03:22:45;;;;;;;9.60;6.13;;;14.50;96.40;;;;;;5012783;28;20512;-61
2023/07/14 03:25:11;;;;;;;10.10;5.57;;;14.40;95.80;;;;;;5012767;28;20148;-61
2023/07/14 03:27:36;;;;;;;9.18;5.53;;;14.60;95.80;;;;;;5012910;28;20521;-61
2023/07/14 03:30:02;;;;;;;7.70;5.57;;;14.50;96.20;;;;;;5012501;28;20084;-61
2023/07/14 03:32:28;;;;;;;8.35;5.15;;;14.10;95.70;;;;;;5012786;28;20125;-61
2023/07/14 03:34:54;;;;;;;10.55;5.43;;;14.60;96.00;;;;;;5012379;28;20033;-61
2023/07/14 03:37:19;;;;;;;7.97;5.63;;;14.50;96.00;;;;;;5012784;28;20046;-61
2023/07/14 03:39:45;;;;;;;11.93;4.95;;;14.50;95.90;;;;;;5012702;28;20045;-61
2023/07/14 03:42:11;;;;;;;7.35;5.05;;;14.50;95.50;;;;;;5012295;28;20045;-61
2023/07/14 03:44:36;;;;;;;8.65;4.60;;;14.50;95.30;;;;;;5012388;28;20038;-61
2023/07/14 03:47:03;;;;;;;10.70;5.03;;;14.30;95.40;;;;;;5011066;28;20096;-61
2023/07/14 03:49:29;;;;;;;7.03;4.85;;;14.50;95.20;;;;;;5012705;28;20549;-61
2023/07/14 03:51:55;;;;;;;7.75;4.97;;;14.40;94.90;;;;;;5012608;28;20038;-61
2023/07/14 03:54:21;;;;;;;8.45;4.88;;;14.40;95.40;;;;;;5012594;28;20046;-61
2023/07/14 03:56:47;;;;;;;11.32;5.13;;;14.40;95.00;;;;;;5012219;28;20096;-61
2023/07/14 03:59:16;;;;;;;9.50;5.65;;;14.60;96.00;;;;;;5012538;28;20112;-62
2023/07/14 04:01:41;;;;;;;7.72;4.82;;;14.40;95.10;;;;;;5014908;28;20145;-61
2023/07/14 04:04:07;;;;;;;10.07;5.10;;;14.40;94.80;;;;;;5014346;28;20124;-61
2023/07/14 04:06:33;;;;;;;7.32;4.53;;;14.40;95.70;;;;;;5015714;28;20038;-61
2023/07/14 04:09:00;;;;;;;10.70;5.13;;;14.30;95.30;;;;;;5015971;28;20038;-61
2023/07/14 04:11:26;;;;;;;6.93;4.72;;;14.50;95.90;;;;;;5015873;28;20084;-61
2023/07/14 04:13:52;;;;;;;9.55;4.68;;;14.60;95.30;;;;;;5015876;28;20436;-61
2023/07/14 04:16:18;;;;;;;9.95;5.18;;;14.40;95.40;;;;;;5015442;28;20096;-61
2023/07/14 04:18:44;;;;;;;8.63;4.82;;;14.40;95.10;;;;;;5015734;28;20457;-61
2023/07/14 04:21:13;;;;;;;8.55;5.07;;;14.40;95.50;;;;;;5014403;28;20054;-61
2023/07/14 04:23:39;;;;;;;7.97;5.28;;;14.50;95.50;;;;;;5015635;28;20046;-61
2023/07/14 04:26:07;;;;;;;9.38;5.05;;;14.50;94.50;;;;;;5015538;28;20402;-61
2023/07/14 04:28:35;;;;;;;8.63;5.68;;;14.50;94.20;;;;;;5015626;28;20160;-61
2023/07/14 04:31:01;;;;;;;9.32;5.20;;;14.40;94.20;;;;;;5015264;28;20045;-61
2023/07/14 04:33:27;;;;;;;6.72;4.72;;;14.50;94.30;;;;;;5015634;28;20494;-61
2023/07/14 04:35:55;;;;;;;9.23;4.95;;;14.50;94.30;;;;;;5015435;28;20038;-61
2023/07/14 04:38:22;;;;;;;9.80;5.32;;;14.30;94.20;;;;;;5015371;28;20042;-61
2023/07/14 04:40:48;;;;;;;10.55;5.20;;;14.60;94.10;;;;;;5015371;28;20111;-61
2023/07/14 04:43:15;;;;;;;7.18;4.63;;;14.60;93.90;;;;;;5015179;28;20046;-61
2023/07/14 04:45:43;;;;;;;10.25;5.55;;;14.60;94.00;;;;;;5015281;28;20454;-61
2023/07/14 04:48:14;;;;;;;8.30;4.65;;;14.40;94.10;;;;;;5015191;28;20393;-61
2023/07/14 04:50:40;;;;;;;9.15;4.63;;;14.70;94.20;;;;;;5013949;28;20037;-61
2023/07/14 04:53:06;;;;;;;7.43;4.18;;;14.70;94.10;;;;;;5015144;28;20042;-62
2023/07/14 04:55:36;;;;;;;7.35;4.07;;;14.80;93.80;;;;;;5015105;28;20611;-61
2023/07/14 04:58:02;;;;;;;9.23;4.85;;;14.80;93.60;;;;;;5013525;28;20045;-61
2023/07/14 05:00:28;;;;;;;8.18;4.63;;;14.90;93.20;;;;;;5015028;28;20129;-61
2023/07/14 05:02:54;;;;;;;7.55;4.75;;;14.80;92.90;;;;;;5014630;28;20133;-61
2023/07/14 05:05:22;;;;;;;7.05;4.57;;;14.70;92.30;;;;;;5015024;28;20050;-61
2023/07/14 05:07:48;;;;;;;7.13;4.63;;;15.00;92.10;;;;;;5014935;28;20046;-61
2023/07/14 05:10:15;;;;;;;7.00;4.22;;;15.10;91.50;;;;;;5014827;28;20034;-61
2023/07/14 05:12:41;;;;;;;7.47;4.72;;;15.10;91.30;;;;;;5013754;28;20454;-64
2023/07/14 05:15:10;;;;;;;6.25;4.53;;;14.90;91.20;;;;;;5013276;28;20117;-61
2023/07/14 05:17:37;;;;;;;12.82;5.10;;;14.90;91.30;;;;;;5014727;28;20034;-61
2023/07/14 05:20:06;;;;;;;5.47;4.18;;;15.20;91.70;;;;;;5014337;28;20049;-62
2023/07/14 05:22:32;;;;;;;8.10;4.40;;;15.20;97.60;;;;;;5014565;28;20038;-64
2023/07/14 05:24:58;;;;;;;6.22;4.00;;;15.20;92.00;;;;;;5014542;28;20065;-61
2023/07/14 05:27:24;;;;;;;6.25;4.07;;;;;;;;;;5014505;28;20072;-61
2023/07/14 05:29:53;;;;;;;8.10;4.13;;;;;;;;;;5014451;28;20034;-61
2023/07/14 05:32:20;;;;;;;8.63;4.88;;;15.40;99.90;;;;;;5014463;28;20045;-61
2023/07/14 05:34:45;;;;;;;7.47;5.07;;;15.40;98.40;;;;;;5014376;28;20030;-61
2023/07/14 05:37:11;;;;;;;9.02;4.63;;;15.50;84.80;;;;;;5014294;28;20539;-63
2023/07/14 05:39:37;;;;;;;7.18;4.82;;;15.70;72.50;;;;;;5014265;28;20048;-62
2023/07/14 05:42:03;;;;;;;13.40;5.38;;;15.60;73.50;;;;;;5014157;28;20038;-62
2023/07/14 05:44:30;;;;;;;9.23;4.88;;;;;;;;;;5014196;28;20045;-62
2023/07/14 05:46:57;;;;;;;9.45;4.95;;;;;;;;;;5014099;28;20045;-62
2023/07/14 05:49:23;;;;;;;6.97;4.80;;;;;;;;;;5013982;28;20042;-64
2023/07/14 05:51:51;;;;;;;7.88;5.32;;;;;;;;;;5014005;28;20045;-66
2023/07/14 05:54:17;;;;;;;8.43;4.82;;;;;;;;;;5012615;28;20074;-64
2023/07/14 05:56:43;;;;;;;9.05;4.65;;;;;;;;;;5013968;28;20049;-62
2023/07/14 05:59:09;;;;;;;7.10;4.43;;;;;;;;;;5013882;28;20486;-62
2023/07/14 06:01:35;;;;;;;7.47;4.88;;;;;;;;;;5013915;28;20054;-62
2023/07/14 06:04:01;;;;;;;8.23;5.28;;;;;;;;;;5013338;28;20410;-67
2023/07/14 06:06:27;;;;;;;8.40;5.10;;;;;;;;;;5013481;28;20048;-65
2023/07/14 06:08:56;;;;;;;7.68;5.40;;;;;;;;;;5013458;28;20048;-61
2023/07/14 06:11:22;;;;;;;9.30;5.93;;;;;;;;;;5012551;28;20433;-64
2023/07/14 06:13:48;;;;;;;7.95;5.35;;;;;;;;;;5013718;28;20470;-64
2023/07/14 06:16:14;;;;;;;6.93;4.82;;;;;;;;;;5013638;28;20050;-64
2023/07/14 06:18:40;;;;;;;8.25;5.63;;;;;;;;;;5013666;28;20129;-63
2023/07/14 06:21:08;;;;;;;8.70;5.63;;;;;;;;;;5012279;28;20048;-66
2023/07/14 06:23:34;;;;;;;9.43;6.38;;;;;;;;;;5013169;28;20046;-61
2023/07/14 06:26:00;;;;;;;12.00;6.50;;;;;;;;;;5012316;28;20493;-61
2023/07/14 06:28:27;;;;;;;12.50;6.13;;;;;;;;;;5013446;28;20040;-64
2023/07/14 06:31:01;;;;;;;9.35;6.50;;;;;;;;;;5013119;28;20042;-62
2023/07/14 06:33:27;;;;;;;9.25;5.97;;;16.70;1.00;;;;;;5011876;28;20049;-61
2023/07/14 06:35:55;;;;;;;10.77;5.15;;;16.60;1.20;;;;;;5012130;28;20069;-63
2023/07/14 06:38:22;;;;;;;7.45;5.00;;;16.80;1.00;;;;;;5011795;28;20072;-61
2023/07/14 06:40:55;;;;;;;9.57;5.63;;;16.90;1.00;;;;;;5012105;28;20081;-61
2023/07/14 06:43:21;;;;;;;10.80;5.95;;;17.10;1.00;;;;;;5028427;28;20469;-61
2023/07/14 06:45:47;;;;;;;13.70;5.88;;;17.20;1.00;;;;;;5013015;28;20046;-62
2023/07/14 06:48:13;;;;;;;6.90;4.85;;;18.90;1.00;;;;;;5013194;28;20044;-61
2023/07/14 06:50:39;;;;;;;12.13;5.50;;;17.50;1.00;;;;;;5013120;28;20112;-61
2023/07/14 06:53:06;;;;;;;10.02;5.35;;;17.60;1.00;;;;;;5013203;28;20046;-61
2023/07/14 06:55:31;;;;;;;8.00;4.40;;;17.70;1.00;;;;;;5013155;28;20402;-62
2023/07/14 06:57:57;;;;;;;8.35;4.95;;;17.90;99.90;;;;;;5011658;28;20042;-62
2023/07/14 07:00:24;;;;;;;9.90;4.60;;;18.00;99.90;;;;;;5013067;28;20540;-61
2023/07/14 07:02:50;;;;;;;7.72;4.15;;;18.10;99.90;;;;;;5012764;28;20058;-61
2023/07/14 07:05:16;;;;;;;7.32;4.43;;;18.30;99.90;;;;;;5013103;28;20052;-61
2023/07/14 07:07:42;;;;;;;7.07;4.30;;;18.40;99.90;;;;;;5012967;28;20038;-62
2023/07/14 07:10:09;;;;;;;7.50;3.83;;;18.40;1.00;;;;;;5012969;28;20561;-61
2023/07/14 07:12:34;;;;;;;14.75;4.60;;;18.60;1.00;;;;;;5012999;28;20493;-61
2023/07/14 07:15:02;;;;;;;8.32;3.80;;;18.60;1.00;;;;;;5028138;28;20123;-61
2023/07/14 07:17:27;;;;;;;6.80;3.67;;;18.70;1.00;;;;;;5012674;28;20042;-61
2023/07/14 07:19:53;;;;;;;6.72;3.70;;;18.80;99.90;;;;;;5012628;28;20052;-61
2023/07/14 07:22:19;;;;;;;6.70;3.42;;;18.90;99.90;;;;;;5011672;28;20078;-61
2023/07/14 07:24:44;;;;;;;6.32;3.53;;;19.00;80.60;;;;;;5012951;28;20401;-61
2023/07/14 07:27:10;;;;;;;8.30;3.28;;;19.10;1.00;;;;;;5012858;28;20497;-61
2023/07/14 07:29:35;;;;;;;6.50;3.22;;;19.20;32.70;;;;;;5012872;28;20038;-61
2023/07/14 07:32:03;;;;;;;6.82;3.88;;;19.30;99.90;;;;;;5011568;28;20042;-61
2023/07/14 07:34:28;;;;;;;6.15;3.17;;;19.40;1.00;;;;;;5012518;28;20050;-62
2023/07/14 07:36:54;;;;;;;8.63;3.63;;;19.40;99.90;;;;;;5015721;28;20045;-61
2023/07/14 07:39:20;;;;;;;4.93;3.03;;;19.50;99.90;;;;;;5016607;28;20042;-61
2023/07/14 07:41:45;;;;;;;8.55;3.28;;;19.60;99.90;;;;;;5016531;28;20493;-61
2023/07/14 07:44:11;;;;;;;9.30;3.35;;;19.60;99.90;;;;;;5014878;28;20045;-63
2023/07/14 07:46:37;;;;;;;6.70;2.88;;;19.80;99.90;;;;;;5016409;28;20184;-62
2023/07/14 07:49:03;;;;;;;4.75;3.17;;;19.90;99.90;;;;;;5015191;28;20374;-64
2023/07/14 07:51:30;;;;;;;6.05;3.10;;;19.90;1.00;;;;;;5014903;28;20401;-64
2023/07/14 07:53:56;;;;;;;5.75;3.33;;;20.00;1.00;;;;;;5016271;28;20038;-67
2023/07/14 07:56:22;;;;;;;6.30;3.08;;;20.10;1.00;;;;;;5014710;28;20052;-66
2023/07/14 07:58:47;;;;;;;9.52;3.72;;;20.10;1.00;;;;;;5016147;28;20486;-65
2023/07/14 08:01:19;;;;;;;5.30;2.90;;;20.10;1.00;;;;;;5016114;28;20042;-62
2023/07/14 08:03:45;;;;;;;4.63;2.47;;;20.10;1.00;;;;;;5015777;28;20060;-62
2023/07/14 08:06:11;;;;;;;4.07;2.25;;;20.30;1.00;;;;;;5015934;28;20030;-63
2023/07/14 08:08:37;;;;;;;8.15;2.75;;;20.20;99.90;;;;;;5015749;28;20092;-62
2023/07/14 08:11:03;;;;;;;6.13;2.50;;;20.30;99.90;;;;;;4997967;28;20034;-63
2023/07/14 08:13:29;;;;;;;4.32;1.83;;;20.30;99.90;;;;;;5015943;28;20104;-62
2023/07/14 08:15:56;;;;;;;3.17;1.77;;;20.30;99.90;;;;;;5015523;28;20125;-62
2023/07/14 08:18:26;;;;;;;2.75;1.80;;;20.50;99.90;;;;;;5015872;28;20069;-62
2023/07/14 08:20:52;;;;;;;6.28;2.03;;;20.50;99.90;;;;;;5015454;28;20037;-62
2023/07/14 08:23:20;;;;;;;4.10;1.77;;;20.50;99.90;;;;;;5013961;28;20073;-62
2023/07/14 08:26:00;;;;;;;4.07;2.22;;;20.60;99.90;;;;;;5015490;28;20121;-62
2023/07/14 08:28:27;;;;;;;4.55;2.03;;;20.50;99.90;;;;;;5014046;28;20044;-62
2023/07/14 08:30:55;;;;;;;5.13;2.05;;;20.50;99.90;;;;;;5015463;28;20392;-62
2023/07/14 08:33:23;;;;;;;3.50;2.15;;;20.80;99.90;;;;;;5015495;28;20042;-62
2023/07/14 08:35:49;;;;;;;3.15;2.00;;;20.80;99.90;;;;;;5015427;28;20405;-63
2023/07/14 08:38:15;;;;;;;3.22;2.00;;;21.00;99.90;;;;;;5015115;28;20042;-63
2023/07/14 08:40:53;;;;;;;3.45;1.80;;;20.80;99.90;;;;;;5013906;28;20053;-62
2023/07/14 08:43:40;;;;;;;6.75;2.10;;;20.80;99.90;;;;;;5015268;28;20040;-62
2023/07/14 08:46:33;;;;;;;3.25;1.70;;;20.70;99.90;;;;;;5013577;28;20045;-63
2023/07/14 08:49:31;;;;;;;3.65;2.05;;;20.60;99.90;;;;;;5014748;28;20049;-62
2023/07/14 08:52:08;;;;;;;3.28;1.70;;;20.40;99.90;;;;;;5015192;28;20060;-62
2023/07/14 08:55:01;;;;;;;3.25;1.80;;;20.10;99.80;;;;;;5015109;28;20037;-62
2023/07/14 08:57:28;;;;;;;5.18;2.10;;;19.90;95.80;;;;;;5015102;28;20445;-62
2023/07/14 09:00:00;;;;;;;4.78;2.35;;;19.80;99.60;;;;;;5014815;28;20089;-62
2023/07/14 09:02:36;;;;;;;3.90;1.90;;;19.80;97.90;;;;;;5013530;28;20125;-62
2023/07/14 09:05:13;;;;;;;6.45;1.85;;;19.80;99.90;;;;;;5014935;28;20452;-63
2023/07/14 09:07:39;;;;;;;2.75;1.40;;;20.00;97.80;;;;;;5014673;28;20073;-62
2023/07/14 09:10:09;;;;;;;4.07;1.67;;;20.00;99.90;;;;;;5013277;28;20490;-62
2023/07/14 09:12:51;;;;;;;2.90;1.80;;;20.00;99.00;;;;;;5014855;28;20076;-62
2023/07/14 09:15:24;;;;;;;4.18;1.90;;;20.00;97.80;;;;;;5014892;28;20042;-62
2023/07/14 09:18:11;;;;;;;5.25;1.80;;;19.90;95.40;;;;;;5014789;28;20041;-62
2023/07/14 09:21:18;;;;;;;7.10;2.17;;;20.20;96.10;;;;;;5014721;28;20042;-62
2023/07/14 09:24:10;;;;;;;3.50;1.88;;;20.40;91.30;;;;;;4973104;28;20074;-62
2023/07/14 09:26:45;;;;;;;2.60;1.58;;;20.50;90.70;;;;;;4973258;28;20047;-62
2023/07/14 09:29:18;;;;;;;3.50;1.73;;;20.70;90.70;;;;;;4997262;28;20108;-62
2023/07/14 09:32:03;;;;;;;3.80;1.60;;;20.80;87.60;;;;;;5012960;28;20056;-65
2023/07/14 09:34:43;;;;;;;2.17;1.40;;;21.10;82.10;;;;;;5014487;28;20045;-63
2023/07/14 09:37:21;;;;;;;5.03;1.50;;;21.30;79.40;;;;;;5012938;28;20466;-62
2023/07/14 09:39:51;;;;;;;2.85;1.52;;;21.30;99.90;;;;;;5013115;28;20048;-62
2023/07/14 09:42:34;;;;;;;3.53;1.67;;;21.40;99.90;;;;;;5012909;28;20052;-62
2023/07/14 09:45:17;;;;;;;5.75;1.55;;;21.50;99.90;;;;;;5014265;28;20475;-62
2023/07/14 09:47:45;;;;;;;3.75;2.13;;;21.70;99.90;;;;;;5014231;28;20092;-63
2023/07/14 09:50:15;;;;;;;5.45;1.88;;;21.80;66.10;;;;;;5012688;28;20042;-62
2023/07/14 09:52:54;;;;;;;3.97;1.35;;;21.70;57.70;;;;;;5013883;28;20046;-62
2023/07/14 09:55:21;;;;;;;4.50;1.83;;;21.60;51.40;;;;;;5013898;28;20176;-62
2023/07/14 09:57:52;;;;;;;3.50;1.65;;;21.50;53.10;;;;;;5013484;28;20382;-62
2023/07/14 10:00:20;;;;;;;3.92;1.80;;;21.60;56.60;;;;;;5012571;28;20046;-62
2023/07/14 10:02:51;;;;;;;5.38;2.00;;;21.70;58.80;;;;;;5013624;28;20442;-62
2023/07/14 10:05:43;;;;;;;3.33;1.85;;;21.90;53.70;;;;;;5013814;28;20113;-66
2023/07/14 10:08:35;;;;;;;2.92;1.52;;;22.00;99.90;;;;;;5012276;28;20041;-62
2023/07/14 10:11:24;;;;;;;4.75;1.98;;;21.70;99.90;;;;;;5013751;28;20060;-62
2023/07/14 10:14:05;;;;;;;6.00;2.20;;;21.90;99.90;;;;;;5013799;28;20037;-62
2023/07/14 10:16:32;;;;;;;3.90;1.75;;;21.90;99.90;;;;;;5013712;28;20056;-62
2023/07/14 10:19:21;;;;;;;8.07;1.90;;;22.10;99.90;;;;;;5012109;28;20046;-62
2023/07/14 10:21:59;;;;;;;6.72;1.92;;;21.90;99.90;;;;;;5013539;28;20400;-62
2023/07/14 10:24:26;;;;;;;4.97;1.50;;;21.70;99.90;;;;;;5013529;28;20397;-62
2023/07/14 10:26:58;;;;;;;3.25;2.13;;;21.40;99.90;;;;;;5013491;28;20052;-62
2023/07/14 10:29:26;;;;;;;5.38;2.30;;;21.50;99.90;;;;;;5013513;28;20037;-62
2023/07/14 10:32:05;;;;;;;6.40;1.90;;;21.50;99.90;;;;;;5013527;28;20392;-62
2023/07/14 10:35:11;;;;;;;6.30;1.90;;;21.30;99.90;;;;;;5013432;28;20552;-68
2023/07/14 10:38:12;;;;;;;5.35;1.90;;;21.20;99.90;;;;;;5013440;28;20068;-62
2023/07/14 10:40:43;;;;;;;2.95;1.65;;;21.40;99.90;;;;;;5000093;28;20434;-62
2023/07/14 10:43:43;;;;;;;3.88;1.77;;;21.90;99.90;;;;;;5013294;28;20049;-62
2023/07/14 10:46:37;;;;;;;3.33;2.10;;;21.80;99.90;;;;;;5010884;28;20049;-62
2023/07/14 10:49:15;;;;;;;3.78;1.83;;;21.90;99.90;;;;;;5008495;28;20050;-63
2023/07/14 10:51:49;;;;;;;4.03;1.92;;;22.00;99.90;;;;;;5013221;28;20042;-65
2023/07/14 10:54:40;;;;;;;3.97;1.98;;;22.30;1.00;;;;;;5013172;28;20060;-65
2023/07/14 10:57:28;;;;;;;3.53;2.10;;;22.30;70.40;;;;;;5012903;28;20114;-67
2023/07/14 10:59:59;;;;;;;4.35;2.10;;;22.40;99.90;;;;;;5013165;28;20093;-64
2023/07/14 11:02:37;;;;;;;6.72;1.88;;;22.60;99.90;;;;;;5012829;28;20060;-64
2023/07/14 11:05:13;;;;;;;4.55;2.05;;;22.30;99.90;;;;;;5012711;28;20075;-64
2023/07/14 11:07:39;;;;;;;3.58;2.20;;;22.90;99.90;;;;;;5012783;28;20034;-64
2023/07/14 11:10:21;;;;;;;3.25;2.00;;;22.60;99.90;;;;;;5013444;28;20117;-64
2023/07/14 11:12:55;;;;;;;7.40;2.20;;;21.80;99.90;;;;;;5015565;28;20037;-65
2023/07/14 11:15:28;;;;;;;2.85;1.58;;;21.60;99.90;;;;;;5017060;28;20088;-69
2023/07/14 11:18:01;;;;;;;4.15;1.95;;;21.60;99.90;;;;;;5016932;28;20445;-64
2023/07/14 11:20:43;;;;;;;4.10;2.25;;;21.60;99.90;;;;;;5015491;28;20453;-65
2023/07/14 11:23:18;;;;;;;5.07;2.30;;;21.50;99.90;;;;;;5015308;28;20050;-67
2023/07/14 11:26:21;;;;;;;3.50;1.95;;;21.50;99.90;;;;;;5016897;28;20069;-64
2023/07/14 11:29:10;;;;;;;3.80;1.90;;;21.60;99.90;;;;;;5017025;28;20045;-64
2023/07/14 11:31:51;;;;;;;6.03;2.03;;;22.20;99.90;;;;;;5016794;28;20080;-61
2023/07/14 11:34:39;;;;;;;10.05;2.22;;;22.30;99.90;;;;;;5016658;28;20081;-61
2023/07/14 11:37:56;;;;;;;6.53;2.15;;;22.30;99.90;;;;;;5016659;28;20394;-63
2023/07/14 11:40:24;;;;;;;8.05;2.35;;;22.20;99.90;;;;;;5016605;28;20045;-63
2023/07/14 11:42:59;;;;;;;5.18;1.92;;;22.10;99.90;;;;;;5016471;28;20046;-66
2023/07/14 11:45:29;;;;;;;27.98;3.20;;;21.80;99.90;;;;;;5016622;28;20042;-63
2023/07/14 11:47:59;;;;;;;3.28;1.50;;;22.40;99.90;;;;;;5015108;28;20046;-62
2023/07/14 11:50:30;;;;;;;3.72;1.83;;;22.90;99.90;;;;;;5015177;28;20038;-64
2023/07/14 11:53:00;;;;;;;4.13;1.92;;;22.60;99.90;;;;;;5016359;28;20451;-64
2023/07/14 11:55:28;;;;;;;5.20;2.00;;;22.10;99.90;;;;;;5015020;28;20066;-62
2023/07/14 11:58:24;;;;;;;4.28;1.60;;;22.80;99.90;;;;;;5016282;28;20427;-62
2023/07/14 12:01:06;;;;;;;2.50;1.50;;;22.50;99.90;;;;;;5014829;28;20405;-63
2023/07/14 12:03:36;;;;;;;7.65;2.25;;;22.70;99.90;;;;;;5015727;28;20053;-63
2023/07/14 12:06:19;;;;;;;4.88;1.60;;;22.50;99.90;;;;;;5016111;28;20042;-62
2023/07/14 12:09:10;;;;;;;6.65;2.10;;;22.40;99.90;;;;;;5016142;28;20474;-62
2023/07/14 12:11:39;;;;;;;6.55;2.20;;;22.30;99.90;;;;;;5015823;28;20046;-63
2023/07/14 12:14:30;;;;;;;3.53;1.63;;;22.30;99.90;;;;;;5015989;28;20512;-67
2023/07/14 12:16:57;;;;;;;4.90;1.50;;;22.10;99.90;;;;;;5015931;28;20042;-62
2023/07/14 12:19:49;;;;;;;3.33;1.88;;;22.30;99.90;;;;;;5015855;28;20071;-65
2023/07/14 12:22:39;;;;;;;3.20;1.50;;;22.50;99.90;;;;;;5014929;28;20052;-62
2023/07/14 12:25:16;;;;;;;2.70;1.60;;;22.20;99.90;;;;;;5015495;28;20042;-62
2023/07/14 12:27:48;;;;;;;3.47;1.60;;;22.70;99.90;;;;;;5015789;28;20064;-63
2023/07/14 12:30:22;;;;;;;4.13;1.48;;;22.30;99.90;;;;;;5015311;28;20041;-63
2023/07/14 12:32:50;;;;;;;5.75;1.52;;;22.30;99.90;;;;;;5015543;28;20398;-63
2023/07/14 12:35:18;;;;;;;3.83;1.80;;;22.90;99.90;;;;;;5015385;28;20064;-64
2023/07/14 12:37:44;;;;;;;3.38;1.70;;;22.90;99.90;;;;;;5015263;28;20073;-64
2023/07/14 12:40:15;;;;;;;4.60;1.92;;;22.70;99.90;;;;;;5015249;28;20120;-63
2023/07/14 12:42:41;;;;;;;;;;;;;;;;;;5015816;28;20107;-63
2023/07/14 12:45:09;;;;;;;3.97;1.65;;;;;;;;;;5015402;28;20071;-62
2023/07/14 12:47:35;;;;;;;5.00;1.98;;;;;;;;;;5015060;28;20034;-62
2023/07/14 12:50:01;;;;;;;3.95;2.05;;;23.60;99.90;;;;;;5015314;28;20390;-62
2023/07/14 12:52:33;;;;;;;3.25;1.83;;;23.40;99.90;;;;;;5015046;28;20071;-67
2023/07/14 12:55:14;;;;;;;3.40;1.70;;;23.40;99.90;;;;;;5013992;28;20536;-67
2023/07/14 12:57:39;;;;;;;;;;;23.20;99.90;;;;;;5015626;28;20444;-63
2023/07/14 13:00:23;;;;;;;3.33;1.60;;;22.90;99.90;;;;;;5014901;28;19949;-64
2023/07/14 13:02:50;;;;;;;2.55;1.45;;;22.80;99.90;;;;;;5014855;28;20060;-65
2023/07/14 13:05:17;;;;;;;3.00;1.70;;;22.60;99.90;;;;;;5013492;28;20092;-64
2023/07/14 13:07:51;;;;;;;5.32;1.80;;;22.60;99.90;;;;;;5014676;28;20038;-64
2023/07/14 13:10:26;;;;;;;3.53;1.60;;;22.90;99.90;;;;;;5015000;28;20077;-64
2023/07/14 13:12:57;;;;;;;5.60;1.65;;;22.90;99.90;;;;;;5014669;28;20128;-66
2023/07/14 13:15:28;;;;;;;3.47;1.60;;;23.50;99.90;;;;;;5013717;28;20394;-63
2023/07/14 13:17:57;;;;;;;4.18;1.70;;;23.70;99.90;;;;;;5014840;28;20049;-63